High Tide — D5AA7 — position and weather

sailwx.info

Track history (hours):
 
Tides and Currents Weather Stations Pressure Air Temp Water Temp Dewpoint Dewpoint Depression Visibility Wind Speed Wind Dir Waves Ship Positions

High Tide

Last reported at 2016-Dec-08 03:12 UTC. Time now 2016-Dec-08 09:55 UTC.
Position N 22°33' E 120°20'.

Length 183 m; draft 8.6 m.

Type: Tanker. MMSI: 636015337.

Date/timePositionNaut miles runAvg speedWind from/ knotsBaromVisibWave heightAir tempDewpointWater temp
2016-Dec-08 03:12N 22°33' E 120°20'4 6.1
2016-Dec-08 02:33N 22°32' E 120°16'1 0.9
2016-Dec-08 01:28N 22°31' E 120°15'0 0.0
2016-Dec-08 00:28N 22°31' E 120°15'0 0.0
2016-Dec-07 23:22N 22°31' E 120°15'0 0.0
2016-Dec-07 22:28N 22°31' E 120°15'0 0.0
2016-Dec-07 21:28N 22°31' E 120°15'0 0.0
2016-Dec-07 20:10N 22°31' E 120°15'0 0.0
2016-Dec-07 19:28N 22°31' E 120°15'0 0.1
2016-Dec-07 18:28N 22°31' E 120°15'0 0.0
2016-Dec-07 17:28N 22°31' E 120°15'0 0.0
2016-Dec-07 16:28N 22°31' E 120°15'0 0.0
2016-Dec-07 15:28N 22°31' E 120°15'0 0.0
2016-Dec-07 14:22N 22°31' E 120°15'0 0.1
2016-Dec-07 13:28N 22°31' E 120°15'0 0.1
2016-Dec-07 12:28N 22°31' E 120°15'0 0.1
2016-Dec-07 11:28N 22°31' E 120°15'0 0.1
2016-Dec-07 10:28N 22°31' E 120°15'0 0.0
2016-Dec-07 09:28N 22°31' E 120°15'0 0.0
2016-Dec-07 08:22N 22°31' E 120°15'0 0.0
2016-Dec-07 07:28N 22°31' E 120°15'0 0.0
2016-Dec-07 06:28N 22°31' E 120°15'0 0.0
2016-Dec-07 05:28N 22°31' E 120°15'0 0.0
2016-Dec-07 04:28N 22°31' E 120°15'0 0.0
2016-Dec-07 03:28N 22°31' E 120°15'0 0.0
2016-Dec-07 02:28N 22°31' E 120°15'0 0.0
2016-Dec-07 01:28N 22°31' E 120°15'0 0.0
2016-Dec-07 00:28N 22°31' E 120°15'0 0.0
2016-Dec-06 23:28N 22°31' E 120°15'0 0.0
2016-Dec-06 22:28N 22°31' E 120°15'0 0.1
2016-Dec-06 21:28N 22°31' E 120°15'0 0.0
2016-Dec-06 20:28N 22°31' E 120°15'0 0.0
2016-Dec-06 18:28N 22°31' E 120°15'0 0.0
2016-Dec-06 17:22N 22°31' E 120°15'0 0.1
2016-Dec-06 16:28N 22°31' E 120°15'0 0.0
2016-Dec-06 15:28N 22°31' E 120°15'0 0.1
2016-Dec-06 14:28N 22°31' E 120°15'0 0.0
2016-Dec-06 13:28N 22°31' E 120°15'0 0.0
2016-Dec-06 12:28N 22°31' E 120°15'0 0.0
2016-Dec-06 11:28N 22°31' E 120°15'0 0.0
2016-Dec-06 10:34N 22°31' E 120°15'0 0.0
2016-Dec-06 09:28N 22°31' E 120°15'0 0.0
2016-Dec-06 08:28N 22°31' E 120°15'0 0.0
2016-Dec-06 07:34N 22°31' E 120°15'0 0.0
2016-Dec-06 06:33N 22°31' E 120°15'0 0.1
2016-Dec-06 05:28N 22°31' E 120°15'0 0.1
2016-Dec-06 04:21N 22°31' E 120°15'0 0.0
2016-Dec-06 03:34N 22°31' E 120°15'0 0.0
2016-Dec-06 02:33N 22°31' E 120°15'0 0.0
2016-Dec-06 01:22N 22°31' E 120°15'0 0.0
2016-Dec-06 00:33N 22°31' E 120°15'0 0.0
2016-Dec-05 23:27N 22°31' E 120°15'0 0.0
2016-Dec-05 22:33N 22°31' E 120°15'0 0.1
2016-Dec-05 21:33N 22°31' E 120°15'0 0.1
2016-Dec-05 20:28N 22°31' E 120°15'0 0.0
2016-Dec-05 19:34N 22°31' E 120°15'0 0.1
2016-Dec-05 18:33N 22°31' E 120°15'0 0.0
2016-Dec-05 17:28N 22°31' E 120°15'0 0.0
2016-Dec-05 16:34N 22°31' E 120°15'0 0.0
2016-Dec-05 15:34N 22°31' E 120°15'0 0.0
2016-Dec-05 14:34N 22°31' E 120°15'0 0.0
2016-Dec-05 13:27N 22°31' E 120°15'0 0.1
2016-Dec-05 12:33N 22°31' E 120°15'0 0.0
2016-Dec-05 11:33N 22°31' E 120°15'0 0.0
2016-Dec-05 10:33N 22°31' E 120°15'0 0.0
2016-Dec-05 09:33N 22°31' E 120°15'0 0.0
2016-Dec-05 07:09N 22°31' E 120°15'2 3.0
2016-Dec-05 06:34N 22°31' E 120°13'1111.2
2016-Dec-05 05:34N 22°30' E 120°01'  
2016-Dec-02 04:32N 31°21' E 121°39'5 0.5
2016-Dec-01 19:19N 31°23' E 121°34'0 0.0
2016-Dec-01 18:13N 31°23' E 121°34'0 0.0
2016-Nov-30 09:33N 31°23' E 121°34'0 0.0
2016-Nov-30 08:21N 31°23' E 121°34'0 0.0
2016-Nov-30 06:33N 31°23' E 121°34'0 0.0
2016-Nov-30 05:33N 31°23' E 121°34'4 3.5
2016-Nov-30 04:33N 31°22' E 121°38'  
Track history (hours):
 
Tides and Currents Weather Stations Pressure Air Temp Water Temp Dewpoint Dewpoint Depression Visibility Wind Speed Wind Dir Waves Ship Positions

High Tide

Last reported at 2016-Dec-08 03:12 UTC. Time now 2016-Dec-08 09:55 UTC.
Position N 22°33' E 120°20'.

Length 183 m; draft 8.6 m.

Type: Tanker. MMSI: 636015337.

Date/timePositionNaut miles runAvg speedWind from/ knotsBaromVisibWave heightAir tempDewpointWater temp
2016-Dec-08 03:12N 22°33' E 120°20'4 6.1
2016-Dec-08 02:33N 22°32' E 120°16'1 0.9
2016-Dec-08 01:28N 22°31' E 120°15'0 0.0
2016-Dec-08 00:28N 22°31' E 120°15'0 0.0
2016-Dec-07 23:22N 22°31' E 120°15'0 0.0
2016-Dec-07 22:28N 22°31' E 120°15'0 0.0
2016-Dec-07 21:28N 22°31' E 120°15'0 0.0
2016-Dec-07 20:10N 22°31' E 120°15'0 0.0
2016-Dec-07 19:28N 22°31' E 120°15'0 0.1
2016-Dec-07 18:28N 22°31' E 120°15'0 0.0
2016-Dec-07 17:28N 22°31' E 120°15'0 0.0
2016-Dec-07 16:28N 22°31' E 120°15'0 0.0
2016-Dec-07 15:28N 22°31' E 120°15'0 0.0
2016-Dec-07 14:22N 22°31' E 120°15'0 0.1
2016-Dec-07 13:28N 22°31' E 120°15'0 0.1
2016-Dec-07 12:28N 22°31' E 120°15'0 0.1
2016-Dec-07 11:28N 22°31' E 120°15'0 0.1
2016-Dec-07 10:28N 22°31' E 120°15'0 0.0
2016-Dec-07 09:28N 22°31' E 120°15'0 0.0
2016-Dec-07 08:22N 22°31' E 120°15'0 0.0
2016-Dec-07 07:28N 22°31' E 120°15'0 0.0
2016-Dec-07 06:28N 22°31' E 120°15'0 0.0
2016-Dec-07 05:28N 22°31' E 120°15'0 0.0
2016-Dec-07 04:28N 22°31' E 120°15'0 0.0
2016-Dec-07 03:28N 22°31' E 120°15'0 0.0
2016-Dec-07 02:28N 22°31' E 120°15'0 0.0
2016-Dec-07 01:28N 22°31' E 120°15'0 0.0
2016-Dec-07 00:28N 22°31' E 120°15'0 0.0
2016-Dec-06 23:28N 22°31' E 120°15'0 0.0
2016-Dec-06 22:28N 22°31' E 120°15'0 0.1
2016-Dec-06 21:28N 22°31' E 120°15'0 0.0
2016-Dec-06 20:28N 22°31' E 120°15'0 0.0
2016-Dec-06 18:28N 22°31' E 120°15'0 0.0
2016-Dec-06 17:22N 22°31' E 120°15'0 0.1
2016-Dec-06 16:28N 22°31' E 120°15'0 0.0
2016-Dec-06 15:28N 22°31' E 120°15'0 0.1
2016-Dec-06 14:28N 22°31' E 120°15'0 0.0
2016-Dec-06 13:28N 22°31' E 120°15'0 0.0
2016-Dec-06 12:28N 22°31' E 120°15'0 0.0
2016-Dec-06 11:28N 22°31' E 120°15'0 0.0
2016-Dec-06 10:34N 22°31' E 120°15'0 0.0
2016-Dec-06 09:28N 22°31' E 120°15'0 0.0
2016-Dec-06 08:28N 22°31' E 120°15'0 0.0
2016-Dec-06 07:34N 22°31' E 120°15'0 0.0
2016-Dec-06 06:33N 22°31' E 120°15'0 0.1
2016-Dec-06 05:28N 22°31' E 120°15'0 0.1
2016-Dec-06 04:21N 22°31' E 120°15'0 0.0
2016-Dec-06 03:34N 22°31' E 120°15'0 0.0
2016-Dec-06 02:33N 22°31' E 120°15'0 0.0
2016-Dec-06 01:22N 22°31' E 120°15'0 0.0
2016-Dec-06 00:33N 22°31' E 120°15'0 0.0
2016-Dec-05 23:27N 22°31' E 120°15'0 0.0
2016-Dec-05 22:33N 22°31' E 120°15'0 0.1
2016-Dec-05 21:33N 22°31' E 120°15'0 0.1
2016-Dec-05 20:28N 22°31' E 120°15'0 0.0
2016-Dec-05 19:34N 22°31' E 120°15'0 0.1
2016-Dec-05 18:33N 22°31' E 120°15'0 0.0
2016-Dec-05 17:28N 22°31' E 120°15'0 0.0
2016-Dec-05 16:34N 22°31' E 120°15'0 0.0
2016-Dec-05 15:34N 22°31' E 120°15'0 0.0
2016-Dec-05 14:34N 22°31' E 120°15'0 0.0
2016-Dec-05 13:27N 22°31' E 120°15'0 0.1
2016-Dec-05 12:33N 22°31' E 120°15'0 0.0
2016-Dec-05 11:33N 22°31' E 120°15'0 0.0
2016-Dec-05 10:33N 22°31' E 120°15'0 0.0
2016-Dec-05 09:33N 22°31' E 120°15'0 0.0
2016-Dec-05 07:09N 22°31' E 120°15'2 3.0
2016-Dec-05 06:34N 22°31' E 120°13'1111.2
2016-Dec-05 05:34N 22°30' E 120°01'  
2016-Dec-02 04:32N 31°21' E 121°39'5 0.5
2016-Dec-01 19:19N 31°23' E 121°34'0 0.0
2016-Dec-01 18:13N 31°23' E 121°34'0 0.0
2016-Nov-30 09:33N 31°23' E 121°34'0 0.0
2016-Nov-30 08:21N 31°23' E 121°34'0 0.0
2016-Nov-30 06:33N 31°23' E 121°34'0 0.0
2016-Nov-30 05:33N 31°23' E 121°34'4 3.5
2016-Nov-30 04:33N 31°22' E 121°38'  

Dump ship's entire track history